Time;durP1;ratioP1;P1;durP2;ratioP2;P2;SDS_P1;SDS_P2;PMS_P1;PMS_P2;Temp;Humidity;BMP_temperature;BMP_pressure;BME280_temperature;BME280_humidity;BME280_pressure;Samples;Min_cycle;Max_cycle;Signal;HPM_P1;HPM_P2
2023/10/27 00:00:55;;;;;;;24.07;14.53;;;;;;;10.07;100.00;98090.69;4251712;28;20243;-72
2023/10/27 00:03:21;;;;;;;19.97;14.50;;;;;;;10.04;100.00;98089.25;4255826;28;20233;-73
2023/10/27 00:05:48;;;;;;;23.87;15.17;;;;;;;10.01;100.00;98089.63;4254738;28;20530;-71
2023/10/27 00:08:15;;;;;;;23.97;14.00;;;;;;;10.01;100.00;98084.22;4253638;28;20900;-70
2023/10/27 00:10:42;;;;;;;21.60;14.43;;;;;;;9.88;100.00;98074.22;4249929;28;20440;-70
2023/10/27 00:13:08;;;;;;;21.47;14.30;;;;;;;9.86;100.00;98075.47;4250778;28;20644;-70
2023/10/27 00:15:35;;;;;;;21.30;14.77;;;;;;;9.92;100.00;98071.94;4247587;28;20237;-71
2023/10/27 00:18:02;;;;;;;21.37;14.53;;;;;;;9.99;100.00;98070.09;4254728;28;20237;-70
2023/10/27 00:20:29;;;;;;;24.60;13.70;;;;;;;9.82;100.00;98066.88;4259858;28;20629;-75
2023/10/27 00:22:56;;;;;;;25.67;14.77;;;;;;;9.85;100.00;98062.97;4243902;28;21710;-73
2023/10/27 00:25:24;;;;;;;26.27;15.83;;;;;;;9.81;100.00;98060.66;4243350;28;21656;-71
2023/10/27 00:27:51;;;;;;;21.57;14.87;;;;;;;9.92;100.00;98063.84;4248280;28;20241;-74
2023/10/27 00:30:18;;;;;;;25.20;14.80;;;;;;;9.86;100.00;98054.66;4242994;28;20372;-71
2023/10/27 00:32:46;;;;;;;26.00;15.57;;;;;;;9.97;100.00;98054.06;4252176;28;20844;-75
2023/10/27 00:35:13;;;;;;;24.77;14.70;;;;;;;10.01;100.00;98059.91;4244624;28;21738;-71
2023/10/27 00:37:40;;;;;;;20.87;14.37;;;;;;;9.92;100.00;98061.13;4248158;28;20366;-73
2023/10/27 00:40:07;;;;;;;22.23;14.60;;;;;;;9.80;100.00;98060.88;4238066;28;23558;-73
2023/10/27 00:42:34;;;;;;;20.97;14.20;;;;;;;9.86;100.00;98070.06;4262901;28;20232;-71
2023/10/27 00:45:01;;;;;;;21.60;13.13;;;;;;;9.94;100.00;98073.41;4252615;28;20230;-73
2023/10/27 00:47:30;;;;;;;21.30;14.23;;;;;;;9.93;100.00;98070.91;4239530;28;22497;-68
2023/10/27 00:49:57;;;;;;;21.80;13.43;;;;;;;10.09;100.00;98075.94;4236929;28;20350;-73
2023/10/27 00:52:25;;;;;;;20.23;13.43;;;;;;;10.16;100.00;98078.69;4246442;28;20538;-74
2023/10/27 00:54:53;;;;;;;19.63;13.73;;;;;;;10.07;100.00;98069.06;4237406;28;20864;-71
2023/10/27 00:57:22;;;;;;;20.40;13.53;;;;;;;9.98;100.00;98073.84;4251114;28;20234;-71
2023/10/27 00:59:50;;;;;;;19.27;13.10;;;;;;;10.01;100.00;98065.31;4242353;28;21325;-75
2023/10/27 01:02:18;;;;;;;20.33;12.63;;;;;;;10.10;100.00;98066.81;4249357;28;20261;-75
2023/10/27 01:04:45;;;;;;;19.17;12.97;;;;;;;10.05;100.00;98072.00;4244629;28;22593;-75
2023/10/27 01:07:13;;;;;;;19.77;13.13;;;;;;;9.95;100.00;98066.13;4254367;28;22042;-73
2023/10/27 01:09:40;;;;;;;22.83;13.47;;;;;;;9.95;100.00;98063.41;4226144;28;20727;-74
2023/10/27 01:12:07;;;;;;;18.10;13.23;;;;;;;9.97;100.00;98061.34;4241903;28;20234;-75
2023/10/27 01:14:33;;;;;;;20.17;11.97;;;;;;;9.99;100.00;98056.59;4252575;28;24908;-75
2023/10/27 01:17:00;;;;;;;17.57;12.30;;;;;;;9.98;100.00;98053.03;4254221;28;20237;-73
2023/10/27 01:19:26;;;;;;;19.90;12.80;;;;;;;10.08;100.00;98049.94;4222323;28;20237;-76
2023/10/27 01:21:53;;;;;;;18.40;12.27;;;;;;;10.15;100.00;98058.94;4253060;28;20296;-73
2023/10/27 01:24:22;;;;;;;20.20;12.60;;;;;;;10.04;100.00;98054.09;4259151;28;20316;-72
2023/10/27 01:26:49;;;;;;;21.00;12.27;;;;;;;10.01;100.00;98050.97;4246895;28;20234;-74
2023/10/27 01:29:16;;;;;;;19.87;13.03;;;;;;;10.01;100.00;98048.28;4260608;28;23530;-75
2023/10/27 01:31:42;;;;;;;23.37;13.17;;;;;;;9.99;100.00;98046.59;4258686;28;20400;-75
2023/10/27 01:34:10;;;;;;;18.87;12.47;;;;;;;10.05;100.00;98046.81;4254662;28;20226;-74
2023/10/27 01:36:36;;;;;;;17.80;12.57;;;;;;;10.04;100.00;98050.56;4252515;28;20349;-74
2023/10/27 01:39:04;;;;;;;17.37;12.63;;;;;;;10.05;100.00;98058.47;4259314;28;20246;-78
2023/10/27 01:41:30;;;;;;;18.67;12.57;;;;;;;9.98;100.00;98057.63;4246881;28;20230;-75
2023/10/27 01:43:57;;;;;;;16.63;11.70;;;;;;;10.02;100.00;98056.16;4246864;28;20246;-75
2023/10/27 01:46:24;;;;;;;17.20;12.43;;;;;;;9.97;100.00;98047.84;4248358;28;21055;-74
2023/10/27 01:48:50;;;;;;;22.33;13.50;;;;;;;9.95;100.00;98048.06;4254365;28;20235;-74
2023/10/27 01:51:17;;;;;;;18.43;12.17;;;;;;;10.02;100.00;98033.72;4248316;28;20247;-74
2023/10/27 01:53:44;;;;;;;19.77;12.57;;;;;;;9.94;100.00;98032.88;4253602;28;20230;-73
2023/10/27 01:56:11;;;;;;;20.33;11.97;;;;;;;10.03;100.00;98033.50;4253966;28;22579;-76
2023/10/27 01:58:44;;;;;;;16.77;11.80;;;;;;;10.12;100.00;98031.47;4242072;28;20245;-75
2023/10/27 02:01:12;;;;;;;18.87;12.13;;;;;;;10.03;100.00;98032.69;4252416;28;20231;-75
2023/10/27 02:03:39;;;;;;;18.47;12.47;;;;;;;9.98;100.00;98028.72;4249736;28;20453;-74
2023/10/27 02:06:06;;;;;;;17.03;11.83;;;;;;;9.97;100.00;98028.91;4247804;28;20770;-74
2023/10/27 02:08:35;;;;;;;19.77;12.57;;;;;;;9.90;100.00;98031.59;4236291;28;20245;-75
2023/10/27 02:11:03;;;;;;;22.30;12.27;;;;;;;9.92;100.00;98018.72;4253120;28;20223;-77
2023/10/27 02:13:30;;;;;;;23.37;11.97;;;;;;;9.89;100.00;98018.28;4249382;28;20960;-76
2023/10/27 02:15:57;;;;;;;17.03;12.27;;;;;;;9.81;100.00;98019.31;4244959;28;20296;-75
2023/10/27 02:18:23;;;;;;;19.43;12.13;;;;;;;9.71;100.00;98024.25;4256431;28;20646;-76
2023/10/27 02:20:50;;;;;;;20.80;11.60;;;;;;;9.93;100.00;98019.56;4249976;28;20249;-76
2023/10/27 02:23:17;;;;;;;20.50;12.30;;;;;;;9.86;100.00;98037.63;4253496;28;20556;-73
2023/10/27 02:25:44;;;;;;;23.90;12.80;;;;;;;9.83;100.00;98028.88;4248233;28;21572;-74
2023/10/27 02:28:10;;;;;;;18.93;12.20;;;;;;;9.80;100.00;98025.75;4239937;28;20621;-74
2023/10/27 02:30:37;;;;;;;17.93;11.50;;;;;;;9.76;100.00;98024.47;4255205;28;20230;-74
2023/10/27 02:33:04;;;;;;;20.87;12.47;;;;;;;9.61;100.00;98022.75;4254256;28;20235;-76
2023/10/27 02:35:31;;;;;;;18.53;11.73;;;;;;;9.64;100.00;98022.38;4247564;28;20730;-74
2023/10/27 02:37:57;;;;;;;17.67;12.10;;;;;;;9.63;100.00;98026.09;4252788;28;21620;-76
2023/10/27 02:40:24;;;;;;;19.37;11.33;;;;;;;9.71;100.00;98022.38;4244675;28;20283;-74
2023/10/27 02:42:50;;;;;;;18.90;11.73;;;;;;;9.74;100.00;98027.38;4250338;28;20290;-77
2023/10/27 02:45:17;;;;;;;19.50;11.30;;;;;;;9.79;100.00;98029.47;4250297;28;20231;-76
2023/10/27 02:47:43;;;;;;;17.80;11.63;;;;;;;9.75;100.00;98018.25;4248685;28;21010;-75
2023/10/27 02:50:10;;;;;;;16.70;10.97;;;;;;;9.71;100.00;98018.84;4251066;28;21510;-76
2023/10/27 02:52:37;;;;;;;18.20;11.27;;;;;;;9.66;100.00;98016.75;4246551;28;20258;-75
2023/10/27 02:55:04;;;;;;;19.33;11.27;;;;;;;9.69;100.00;98013.66;4247397;28;20269;-75
2023/10/27 02:57:31;;;;;;;18.13;11.53;;;;;;;9.68;100.00;98004.69;4220556;28;20653;-75
2023/10/27 02:59:58;;;;;;;17.80;11.40;;;;;;;9.60;100.00;98018.38;4229717;28;20233;-74
2023/10/27 03:02:26;;;;;;;15.63;11.07;;;;;;;9.55;100.00;98010.06;4260185;28;20230;-75
2023/10/27 03:04:56;;;;;;;18.03;11.30;;;;;;;9.62;100.00;98020.91;4251062;28;20316;-77
2023/10/27 03:07:22;;;;;;;15.57;10.17;;;;;;;9.62;100.00;98010.09;4250029;28;23923;-77
2023/10/27 03:09:49;;;;;;;19.37;12.23;;;;;;;9.53;100.00;98012.13;4248409;28;20239;-75
2023/10/27 03:12:16;;;;;;;18.47;11.63;;;;;;;9.47;100.00;98012.91;4239179;28;20280;-76
2023/10/27 03:14:43;;;;;;;19.30;11.80;;;;;;;9.57;100.00;98013.41;4253482;28;20257;-75
2023/10/27 03:17:10;;;;;;;19.23;12.00;;;;;;;9.59;100.00;97999.69;4253601;28;21885;-75
2023/10/27 03:19:37;;;;;;;20.07;11.97;;;;;;;9.51;100.00;98001.53;4249773;28;22171;-75
2023/10/27 03:22:04;;;;;;;16.83;10.67;;;;;;;9.50;100.00;98002.56;4226298;28;20226;-76
2023/10/27 03:24:31;;;;;;;17.73;11.57;;;;;;;9.52;100.00;98003.19;4246573;28;20436;-76
2023/10/27 03:26:57;;;;;;;18.87;12.60;;;;;;;9.39;100.00;97995.03;4251343;28;20292;-75
2023/10/27 03:29:24;;;;;;;18.97;11.63;;;;;;;9.31;100.00;98001.41;4245882;28;20758;-76
2023/10/27 03:31:50;;;;;;;19.50;11.90;;;;;;;9.21;100.00;97982.06;4247928;28;20618;-75
2023/10/27 03:34:17;;;;;;;21.00;12.47;;;;;;;9.29;100.00;97975.66;4257812;28;22628;-76
2023/10/27 03:36:44;;;;;;;20.77;12.73;;;;;;;9.16;100.00;97985.34;4256640;28;20608;-75
2023/10/27 03:39:10;;;;;;;21.10;12.70;;;;;;;9.18;100.00;97974.34;4251326;28;20245;-75
2023/10/27 03:41:37;;;;;;;21.17;13.23;;;;;;;9.12;100.00;97973.28;4234866;28;23351;-76
2023/10/27 03:44:04;;;;;;;24.50;14.13;;;;;;;9.12;100.00;97972.47;4250719;28;20324;-74
2023/10/27 03:46:30;;;;;;;28.70;13.93;;;;;;;9.08;100.00;97969.31;4250718;28;20519;-73
2023/10/27 03:48:58;;;;;;;26.57;14.27;;;;;;;9.08;100.00;97965.78;4246598;28;20381;-75
2023/10/27 03:51:25;;;;;;;26.93;14.30;;;;;;;9.04;100.00;97973.44;4253377;28;20708;-74
2023/10/27 03:53:54;;;;;;;26.50;14.30;;;;;;;9.23;100.00;97961.09;4229344;28;20234;-75
2023/10/27 03:56:21;;;;;;;27.73;15.37;;;;;;;9.36;100.00;97981.91;4254891;28;21742;-75
2023/10/27 03:58:47;;;;;;;22.20;14.13;;;;;;;9.42;100.00;97973.00;4242255;28;20285;-76
2023/10/27 04:01:15;;;;;;;20.23;12.97;;;;;;;9.52;100.00;97978.88;4231740;28;20286;-75
2023/10/27 04:03:41;;;;;;;20.83;12.80;;;;;;;9.46;100.00;97974.28;4243828;28;20234;-76
2023/10/27 04:06:09;;;;;;;23.47;13.37;;;;;;;9.55;100.00;97979.53;4253261;28;20239;-75
2023/10/27 04:08:36;;;;;;;22.10;12.83;;;;;;;9.55;100.00;97983.03;4247371;28;20303;-75
2023/10/27 04:11:04;;;;;;;22.60;12.90;;;;;;;9.51;100.00;97985.31;4247155;28;20230;-76
2023/10/27 04:13:30;;;;;;;18.00;12.03;;;;;;;9.56;100.00;97984.72;4249951;28;21100;-77
2023/10/27 04:15:57;;;;;;;22.63;12.07;;;;;;;9.60;100.00;98001.34;4256886;28;20365;-75
2023/10/27 04:18:23;;;;;;;20.63;12.20;;;;;;;9.73;100.00;97993.28;4245544;28;20488;-76
2023/10/27 04:20:50;;;;;;;18.30;11.93;;;;;;;9.67;100.00;97994.94;4231669;28;20258;-75
2023/10/27 04:23:17;;;;;;;21.60;11.70;;;;;;;9.71;100.00;98005.34;4253965;28;20472;-74
2023/10/27 04:25:43;;;;;;;18.37;11.77;;;;;;;9.67;100.00;98013.84;4228582;28;20585;-77
2023/10/27 04:28:10;;;;;;;18.77;11.73;;;;;;;9.62;100.00;97999.28;4245065;28;25185;-74
2023/10/27 04:30:37;;;;;;;20.50;11.63;;;;;;;9.59;100.00;97999.69;4248277;28;21678;-74
2023/10/27 04:33:05;;;;;;;19.10;12.10;;;;;;;9.66;100.00;98001.41;4249973;28;20303;-74
2023/10/27 04:35:32;;;;;;;18.63;12.07;;;;;;;9.66;100.00;98004.09;4236879;28;21689;-74
2023/10/27 04:37:59;;;;;;;20.83;12.33;;;;;;;9.64;100.00;97992.66;4238815;28;20938;-75
2023/10/27 04:40:28;;;;;;;21.37;13.43;;;;;;;9.73;100.00;98000.56;4229801;28;20253;-76
2023/10/27 04:42:58;;;;;;;24.13;14.43;;;;;;;9.70;100.00;98001.81;4244233;28;20241;-74
2023/10/27 04:45:25;;;;;;;22.43;14.13;;;;;;;9.63;100.00;97992.84;4251942;28;20278;-75
2023/10/27 04:47:53;;;;;;;21.70;13.80;;;;;;;9.53;100.00;97995.91;4238238;28;20233;-74
2023/10/27 04:50:21;;;;;;;21.87;12.40;;;;;;;9.49;100.00;97991.97;4240329;28;20238;-77
2023/10/27 04:52:48;;;;;;;21.90;13.90;;;;;;;9.50;100.00;97999.84;4252109;28;20340;-75
2023/10/27 04:55:14;;;;;;;21.37;13.03;;;;;;;9.50;100.00;98001.72;4265391;28;20272;-73
2023/10/27 04:57:41;;;;;;;22.10;12.60;;;;;;;9.55;100.00;97995.72;4240293;28;20601;-75
2023/10/27 05:00:09;;;;;;;20.90;12.63;;;;;;;9.51;100.00;97998.81;4247671;28;20367;-75
2023/10/27 05:02:36;;;;;;;24.20;12.20;;;;;;;9.43;100.00;97996.28;4255871;28;21035;-76
2023/10/27 05:05:04;;;;;;;21.87;12.70;;;;;;;9.40;100.00;98004.81;4246583;28;20238;-74
2023/10/27 05:07:31;;;;;;;20.00;12.60;;;;;;;9.41;100.00;97998.34;4244190;28;20226;-76
2023/10/27 05:09:57;;;;;;;20.00;12.10;;;;;;;9.41;100.00;98001.03;4244051;28;20278;-75
2023/10/27 05:12:24;;;;;;;18.37;11.00;;;;;;;9.50;100.00;97999.84;4248562;28;20314;-76
2023/10/27 05:14:51;;;;;;;22.80;12.40;;;;;;;9.46;100.00;98005.84;4241046;28;22766;-76
2023/10/27 05:17:18;;;;;;;20.33;12.20;;;;;;;9.51;100.00;98011.50;4244456;28;21759;-78
2023/10/27 05:19:44;;;;;;;22.03;11.67;;;;;;;9.48;100.00;98018.13;4248629;28;22972;-75
2023/10/27 05:22:13;;;;;;;23.03;12.20;;;;;;;9.29;100.00;98006.19;4258752;28;20533;-75
2023/10/27 05:24:40;;;;;;;26.10;12.67;;;;;;;9.15;100.00;98021.47;4247804;28;20317;-77
2023/10/27 05:27:07;;;;;;;23.27;13.07;;;;;;;9.10;100.00;98013.13;4249841;28;20226;-75
2023/10/27 05:29:34;;;;;;;20.97;12.90;;;;;;;9.24;100.00;98024.84;4246021;28;20265;-76
2023/10/27 05:32:01;;;;;;;23.03;13.17;;;;;;;9.27;100.00;98018.22;4251731;28;20276;-76
2023/10/27 05:34:28;;;;;;;22.90;13.20;;;;;;;9.32;100.00;98018.47;4253633;28;22145;-76
2023/10/27 05:36:57;;;;;;;23.10;12.80;;;;;;;9.36;100.00;98030.53;4245007;28;20303;-74
2023/10/27 05:39:26;;;;;;;21.20;13.07;;;;;;;9.35;100.00;98040.50;4241699;28;21640;-76
2023/10/27 05:41:53;;;;;;;25.10;12.53;;;;;;;9.43;100.00;98027.88;4270796;28;20285;-75
2023/10/27 05:44:20;;;;;;;19.73;11.97;;;;;;;9.35;100.00;98034.25;4255867;28;20239;-74
2023/10/27 05:46:47;;;;;;;24.17;12.70;;;;;;;9.29;100.00;98035.06;4260500;28;20245;-77
2023/10/27 05:49:14;;;;;;;23.07;13.20;;;;;;;9.35;100.00;98034.25;4286166;28;20463;-73
2023/10/27 05:51:41;;;;;;;24.53;14.10;;;;;;;9.12;100.00;98029.13;4264691;28;20228;-73
2023/10/27 05:54:08;;;;;;;24.67;14.40;;;;;;;9.08;100.00;98028.69;4256808;28;20238;-74
2023/10/27 05:56:35;;;;;;;21.60;13.27;;;;;;;9.22;100.00;98034.19;4263262;28;20309;-75
2023/10/27 05:59:01;;;;;;;27.37;14.27;;;;;;;9.15;100.00;98039.53;4257839;28;22694;-73
2023/10/27 06:01:29;;;;;;;28.77;14.83;;;;;;;9.13;100.00;98041.59;4267744;28;20257;-72
2023/10/27 06:03:57;;;;;;;25.27;14.03;;;;;;;9.15;100.00;98047.63;4251702;28;20243;-74
2023/10/27 06:06:25;;;;;;;26.90;13.43;;;;;;;9.25;100.00;98053.50;4247180;28;20587;-73
2023/10/27 06:08:53;;;;;;;19.30;12.20;;;;;;;9.38;100.00;98055.47;4262934;28;20230;-74
2023/10/27 06:11:20;;;;;;;19.73;11.77;;;;;;;9.43;100.00;98055.69;4262902;28;20230;-72
2023/10/27 06:13:47;;;;;;;19.67;11.47;;;;;;;9.51;100.00;98055.53;4257028;28;22066;-73
2023/10/27 06:16:13;;;;;;;19.07;11.70;;;;;;;9.64;100.00;98054.78;4302158;28;21365;-72
2023/10/27 06:18:41;;;;;;;18.67;10.57;;;;;;;9.66;100.00;98055.41;4258073;28;20619;-73
2023/10/27 06:21:08;;;;;;;18.47;11.07;;;;;;;9.78;100.00;98055.66;4263240;28;20230;-73
2023/10/27 06:23:35;;;;;;;18.40;10.07;;;;;;;9.68;100.00;98063.31;4304564;28;22086;-72
2023/10/27 06:26:02;;;;;;;15.73;10.07;;;;;;;9.74;100.00;98064.38;4241401;28;20240;-72
2023/10/27 06:28:31;;;;;;;19.10;10.67;;;;;;;9.75;100.00;98069.59;4246217;28;20675;-74
2023/10/27 06:30:57;;;;;;;18.17;10.73;;;;;;;9.81;100.00;98062.56;4262818;28;20315;-73
2023/10/27 06:33:24;;;;;;;16.87;10.37;;;;;;;9.86;100.00;98062.78;4238475;28;20666;-72
2023/10/27 06:35:51;;;;;;;16.60;10.57;;;;;;;9.91;100.00;98054.06;4252028;28;20235;-75
2023/10/27 06:38:17;;;;;;;15.33;9.70;;;;;;;9.77;100.00;98056.72;4257356;28;20235;-74
2023/10/27 06:40:44;;;;;;;15.73;10.83;;;;;;;9.82;100.00;98056.94;4251099;28;20279;-73
2023/10/27 06:43:11;;;;;;;17.80;10.63;;;;;;;9.80;100.00;98058.19;4252087;28;20233;-75
2023/10/27 06:45:38;;;;;;;16.50;10.40;;;;;;;9.60;100.00;98056.19;4261186;28;20425;-74
2023/10/27 06:48:04;;;;;;;19.20;10.50;;;;;;;9.58;100.00;98065.53;4241828;28;20238;-73
2023/10/27 06:50:31;;;;;;;17.07;10.70;;;;;;;9.49;100.00;98071.09;4231692;28;20234;-73
2023/10/27 06:52:58;;;;;;;19.47;11.63;;;;;;;9.49;100.00;98068.41;4261686;28;20342;-74
2023/10/27 06:55:29;;;;;;;21.23;12.23;;;;;;;9.44;100.00;98064.66;4233026;28;20625;-74
2023/10/27 06:57:56;;;;;;;21.27;12.13;;;;;;;9.54;100.00;98072.38;4243575;28;21121;-74
2023/10/27 07:00:22;;;;;;;20.70;12.30;;;;;;;9.63;100.00;98066.63;4233718;28;20431;-71
2023/10/27 07:02:49;;;;;;;26.27;11.27;;;;;;;9.56;100.00;98060.34;4236217;28;21118;-73
2023/10/27 07:05:23;;;;;;;18.40;11.77;;;;;;;9.68;100.00;98064.13;4240351;28;21040;-73
2023/10/27 07:07:52;;;;;;;17.27;11.23;;;;;;;9.83;100.00;98053.19;4234623;28;20237;-73
2023/10/27 07:10:19;;;;;;;22.33;11.83;;;;;;;9.97;100.00;98058.66;4239141;28;20227;-73
2023/10/27 07:12:46;;;;;;;21.07;11.83;;;;;;;10.09;100.00;98054.31;4238569;28;20242;-75
2023/10/27 07:15:14;;;;;;;20.83;10.73;;;;;;;10.42;100.00;98048.19;4237503;28;20235;-74
2023/10/27 07:17:41;;;;;;;19.77;11.63;;;;;;;10.38;100.00;98046.09;4257143;28;21730;-74
2023/10/27 07:20:08;;;;;;;17.67;10.93;;;;;;;10.30;100.00;98041.72;4238047;28;20444;-74
2023/10/27 07:22:36;;;;;;;15.10;10.27;;;;;;;10.19;100.00;98053.09;4234305;28;20477;-76
2023/10/27 07:25:04;;;;;;;18.80;11.03;;;;;;;10.21;100.00;98046.44;4247730;28;20271;-78
2023/10/27 07:27:33;;;;;;;19.07;10.27;;;;;;;10.12;100.00;98042.28;4245387;28;22591;-76
2023/10/27 07:29:59;;;;;;;22.37;10.47;;;;;;;10.19;100.00;98047.69;4242162;28;20274;-76
2023/10/27 07:32:26;;;;;;;19.03;10.97;;;;;;;10.22;100.00;98039.19;4255296;28;20348;-69
2023/10/27 07:34:53;;;;;;;20.37;10.93;;;;;;;10.33;100.00;98035.88;4244200;28;20354;-77
2023/10/27 07:37:21;;;;;;;18.73;10.70;;;;;;;10.32;100.00;98045.00;4245151;28;20931;-76
2023/10/27 07:39:48;;;;;;;18.77;10.63;;;;;;;10.40;100.00;98036.75;4233047;28;20606;-76
2023/10/27 07:42:15;;;;;;;15.73;10.37;;;;;;;10.63;98.02;98035.53;4230476;28;20381;-76
2023/10/27 07:44:42;;;;;;;19.40;10.53;;;;;;;10.71;95.90;98035.31;4237952;28;20235;-76
2023/10/27 07:47:09;;;;;;;15.20;10.20;;;;;;;10.63;97.54;98038.22;4234518;28;22001;-79
2023/10/27 07:49:35;;;;;;;18.80;10.70;;;;;;;10.91;95.79;98045.34;4243740;28;20293;-77
2023/10/27 07:52:03;;;;;;;22.00;11.93;;;;;;;10.88;95.82;98048.44;4266546;28;22902;-75
2023/10/27 07:54:32;;;;;;;20.97;11.80;;;;;;;10.86;96.39;98051.38;4236737;28;20306;-75
2023/10/27 07:56:59;;;;;;;17.57;10.70;;;;;;;10.56;96.26;98059.03;4249650;28;20788;-77
2023/10/27 07:59:27;;;;;;;17.37;10.77;;;;;;;10.50;97.69;98052.56;4236447;28;22243;-75
2023/10/27 08:01:57;;;;;;;18.60;10.70;;;;;;;10.46;97.79;98054.84;4261781;28;20369;-76
2023/10/27 08:04:26;;;;;;;17.20;10.93;;;;;;;10.52;96.67;98049.69;4227999;28;22723;-75
2023/10/27 08:06:53;;;;;;;20.90;10.70;;;;;;;10.52;96.98;98050.50;4230950;28;26477;-76
2023/10/27 08:09:20;;;;;;;15.43;9.83;;;;;;;10.42;97.45;98059.03;4232956;28;20317;-75
2023/10/27 08:11:49;;;;;;;19.13;11.33;;;;;;;10.39;98.29;98061.31;4233482;28;20647;-75
2023/10/27 08:14:16;;;;;;;22.80;10.67;;;;;;;10.37;97.90;98058.81;4240255;28;20236;-73
2023/10/27 08:16:45;;;;;;;19.97;10.43;;;;;;;10.39;98.20;98064.00;4223197;28;20224;-75
2023/10/27 08:19:12;;;;;;;17.43;10.13;;;;;;;10.32;97.96;98055.84;4235644;28;20697;-73
2023/10/27 08:21:40;;;;;;;19.73;10.97;;;;;;;10.36;97.56;98061.66;4232146;28;20453;-76
2023/10/27 08:24:08;;;;;;;17.70;10.40;;;;;;;10.31;97.82;98073.09;4243494;28;20305;-76
2023/10/27 08:26:37;;;;;;;20.57;11.57;;;;;;;10.26;97.28;98065.63;4225882;28;20350;-76
2023/10/27 08:29:04;;;;;;;16.13;10.50;;;;;;;10.24;97.98;98070.38;4227765;28;20270;-75
2023/10/27 08:31:31;;;;;;;18.43;11.60;;;;;;;10.20;97.56;98062.88;4243007;28;21026;-74
2023/10/27 08:34:00;;;;;;;17.87;11.37;;;;;;;10.22;98.35;98074.34;4218759;28;21960;-43
2023/10/27 08:36:27;;;;;;;18.90;9.87;;;;;;;10.21;96.95;98078.91;4228983;28;20235;-72
2023/10/27 08:38:54;;;;;;;19.73;9.90;;;;;;;10.28;97.00;98077.03;4240435;28;20235;-72
2023/10/27 08:41:25;;;;;;;20.33;10.60;;;;;;;10.31;97.05;98067.69;4235038;28;20336;-76
2023/10/27 08:43:55;;;;;;;20.17;10.80;;;;;;;10.43;96.88;98068.81;4230788;28;20230;-72
2023/10/27 08:46:32;;;;;;;19.30;11.17;;;;;;;10.30;97.86;98071.44;4225195;28;23054;-72
2023/10/27 08:48:58;;;;;;;19.30;11.20;;;;;;;10.50;97.13;98066.09;4238368;28;20239;-71
2023/10/27 08:51:26;;;;;;;21.43;11.23;;;;;;;10.45;97.57;98069.44;4226075;28;20377;-75
2023/10/27 08:53:53;;;;;;;25.50;12.10;;;;;;;10.64;97.20;98061.53;4227762;28;20223;-75
2023/10/27 08:56:19;;;;;;;20.53;11.83;;;;;;;10.45;97.27;98057.78;4224161;28;20232;-82
2023/10/27 08:58:47;;;;;;;21.17;11.33;;;;;;;10.50;97.02;98066.09;4224065;28;20238;-74
2023/10/27 09:01:14;;;;;;;24.07;13.30;;;;;;;10.49;98.20;98064.44;4228002;28;20242;-73
2023/10/27 09:03:41;;;;;;;19.23;11.13;;;;;;;10.57;97.74;98064.25;4242034;28;20281;-74
2023/10/27 09:06:08;;;;;;;19.10;11.17;;;;;;;10.64;97.06;98063.44;4240619;28;21053;-69
2023/10/27 09:08:35;;;;;;;16.80;10.70;;;;;;;10.60;95.99;98060.31;4240026;28;20290;-74
2023/10/27 09:11:02;;;;;;;21.00;10.93;;;;;;;10.61;95.83;98072.78;4242029;28;21931;-73
2023/10/27 09:13:39;;;;;;;21.00;11.07;;;;;;;10.58;95.57;98067.78;4236603;28;20615;-77
2023/10/27 09:16:06;;;;;;;19.17;10.13;;;;;;;10.47;94.92;98071.94;4231690;28;20379;-75
2023/10/27 09:18:35;;;;;;;16.53;9.93;;;;;;;10.53;94.84;98065.69;4238732;28;20371;-73
2023/10/27 09:21:02;;;;;;;19.30;9.53;;;;;;;10.68;93.32;98064.66;4243953;28;20636;-74
2023/10/27 09:23:44;;;;;;;13.43;7.90;;;;;;;10.69;89.95;98063.63;4263087;28;20340;-78
2023/10/27 09:26:15;;;;;;;12.93;8.20;;;;;;;10.97;88.95;98065.31;4242150;28;20305;-76
2023/10/27 09:28:43;;;;;;;12.00;7.37;;;;;;;10.98;89.63;98056.13;4236324;28;20238;-77
2023/10/27 09:31:11;;;;;;;11.37;7.83;;;;;;;10.96;90.72;98058.22;4240663;28;20313;-70
2023/10/27 09:33:39;;;;;;;11.63;7.53;;;;;;;11.10;89.86;98060.72;4245782;28;20481;-74
2023/10/27 09:36:08;;;;;;;11.20;7.23;;;;;;;10.94;88.61;98056.56;4246959;28;20273;-72
2023/10/27 09:38:37;;;;;;;12.83;8.10;;;;;;;10.93;89.49;98059.47;4237093;28;20241;-75
2023/10/27 09:41:07;;;;;;;14.13;9.03;;;;;;;10.86;90.78;98054.06;4230134;28;21587;-70
2023/10/27 09:43:40;;;;;;;13.33;8.60;;;;;;;10.97;89.30;98054.47;4251357;28;20313;-73
2023/10/27 09:46:09;;;;;;;13.47;7.57;;;;;;;11.01;88.14;98044.91;4249157;28;20371;-70
2023/10/27 09:48:43;;;;;;;13.87;8.40;;;;;;;11.08;88.23;98051.16;4230997;28;21139;-72
2023/10/27 09:51:17;;;;;;;14.07;8.53;;;;;;;11.30;88.87;98040.91;4276327;28;20234;-70
2023/10/27 09:53:48;;;;;;;16.97;8.30;;;;;;;11.23;89.95;98030.09;4236878;28;20638;-71
2023/10/27 09:56:21;;;;;;;11.97;7.87;;;;;;;11.47;88.84;98026.91;4257425;28;21670;-70
2023/10/27 09:58:48;;;;;;;11.30;6.20;;;;;;;11.83;84.03;98031.78;4231207;28;21358;-71
2023/10/27 10:01:15;;;;;;;8.83;5.90;;;;;;;12.32;80.07;98026.78;4228932;28;20236;-71
2023/10/27 10:03:43;;;;;;;8.97;5.20;;;;;;;12.01;81.08;98025.69;4230317;28;20235;-74
2023/10/27 10:06:23;;;;;;;8.70;5.63;;;;;;;12.11;79.79;98014.38;4267181;28;21744;-73
2023/10/27 10:09:14;;;;;;;7.50;5.10;;;;;;;12.77;76.05;98028.53;4234108;28;21437;-74
2023/10/27 10:11:47;;;;;;;6.87;4.40;;;;;;;12.39;75.54;98021.28;4239697;28;20287;-75
2023/10/27 10:14:42;;;;;;;9.30;4.93;;;;;;;12.31;77.31;98022.38;4236735;28;20293;-74
2023/10/27 10:17:09;;;;;;;9.07;5.60;;;;;;;12.43;77.40;98010.81;4249789;28;20406;-76
2023/10/27 10:19:48;;;;;;;8.00;5.40;;;;;;;12.42;77.18;98006.47;4245307;28;20232;-73
2023/10/27 10:22:39;;;;;;;9.20;6.00;;;;;;;12.60;77.52;98003.00;4218107;28;21368;-73
2023/10/27 10:25:18;;;;;;;10.27;5.80;;;;;;;12.16;76.08;97997.44;4219166;28;20222;-74
2023/10/27 10:28:07;;;;;;;6.37;4.53;;;;;;;12.51;75.20;98011.41;4228343;28;20301;-75
2023/10/27 10:30:38;;;;;;;8.07;5.33;;;;;;;12.70;75.31;98003.31;4241289;28;20231;-72
2023/10/27 10:33:16;;;;;;;10.27;5.87;;;;;;;12.42;76.96;98001.03;4236282;28;20223;-72
2023/10/27 10:35:45;;;;;;;8.70;5.60;;;;;;;12.58;75.41;97995.06;4244324;28;20232;-73
2023/10/27 10:38:21;;;;;;;9.13;4.77;;;;;;;12.88;74.43;97990.84;4219551;28;22992;-75
2023/10/27 10:40:56;;;;;;;9.80;6.10;;;;;;;12.97;74.84;97984.09;4267940;28;20314;-75
2023/10/27 10:43:25;;;;;;;6.83;4.97;;;;;;;13.00;74.08;97975.47;4227262;28;20280;-75
2023/10/27 10:45:56;;;;;;;7.73;4.80;;;;;;;12.62;73.38;97973.72;4243410;28;20232;-76
2023/10/27 10:48:25;;;;;;;5.93;4.37;;;;;;;13.03;72.36;97971.50;4240445;28;20281;-74
2023/10/27 10:50:55;;;;;;;6.53;4.03;;;;;;;12.91;72.29;97971.41;4218148;28;20243;-73
2023/10/27 10:53:26;;;;;;;6.30;4.67;;;;;;;13.08;71.61;97977.09;4267038;28;21754;-74
2023/10/27 10:56:00;;;;;;;6.53;4.03;;;;;;;13.00;71.43;97989.06;4264073;28;20232;-72
2023/10/27 10:58:29;;;;;;;7.30;4.10;;;;;;;12.93;72.48;97985.56;4253871;28;20227;-72
2023/10/27 11:00:57;;;;;;;10.63;4.50;;;;;;;13.29;71.25;97978.56;4229817;28;20257;-76
2023/10/27 11:03:27;;;;;;;5.83;4.30;;;;;;;12.53;73.29;97994.91;4247169;28;20427;-75
2023/10/27 11:06:12;;;;;;;8.23;4.60;;;;;;;12.27;75.43;97994.06;4242649;28;21606;-74
2023/10/27 11:08:39;;;;;;;7.27;5.23;;;;;;;12.01;76.35;97986.88;4228364;28;20358;-72
2023/10/27 11:11:07;;;;;;;10.47;5.77;;;;;;;12.48;75.72;97978.44;4224979;28;21385;-72
2023/10/27 11:13:43;;;;;;;7.50;5.10;;;;;;;12.38;75.90;97987.09;4253868;28;20530;-68
2023/10/27 11:16:12;;;;;;;8.87;5.00;;;;;;;12.63;74.61;97986.25;4239960;28;21818;-70
2023/10/27 11:18:39;;;;;;;8.13;5.00;;;;;;;12.88;72.74;97977.28;4227107;28;20347;-70
2023/10/27 11:21:06;;;;;;;6.70;5.13;;;;;;;12.62;72.49;97980.00;4233604;28;20227;-70
2023/10/27 11:23:32;;;;;;;8.97;4.60;;;;;;;12.18;75.23;97966.34;4248579;28;21793;-69